Menu       Hjem   X °C

Select another period ( hide this area )

Units Period Custom range Directly to
Metric English Both
Daily Weekly Monthly Yearly
use both date-selectors for a custom range
previous Day
With this date
Daily Summary for Saturday 15 June 2024
Time Temp. ( °F ) Dew pt. ( °F ) Wind ( mph ) From Gust ( mph ) Pressure ( in ) Humid.( % ) Rainrate ( in )
High90.7 73.2 2.0 South ( 91/91 ) 3.0 30.00 99 -
Average75.4 67.5 0.4 Calm #150/231 0.5 30.00 80 -
Low62.4 62.1 -   0.0 29.93 44 -
Daily Tabular details for Saturday 15 June 2024
Time Temp. ( °F ) Dew pt. ( °F ) Wind ( mph ) From Gust ( mph ) Pressure ( in ) Humid.( % ) Rainrate ( in )
00:04 68.2 66.6   Calm   29.95 95 -
00:09 68.0 66.9   Calm   29.94 96 -
00:14 68.0 66.9   Calm   29.94 96 -
00:19 67.8 66.7   Calm   29.95 96 -
00:24 67.8 66.7   Calm   29.94 96 -
00:29 67.6 66.6   Calm   29.95 96 -
00:34 67.5 66.4   Calm   29.94 96 -
00:39 67.5 66.4   Calm   29.94 96 -
00:44 67.3 66.6   Calm   29.95 97 -
00:49 67.3 66.6   Calm   29.94 97 -
00:54 67.1 66.4   Calm   29.95 97 -
00:59 67.1 66.4   Calm   29.94 97 -
01:04 67.1 66.4   Calm   29.94 97 -
01:09 67.3 66.6   Calm   29.94 97 -
01:14 67.3 66.7   Calm   29.94 98 -
01:19 67.3 66.7   Calm   29.94 98 -
01:24 67.3 66.7   Calm   29.94 98 -
01:29 67.1 66.6   Calm   29.94 98 -
01:34 66.9 66.2   Calm   29.94 97 -
01:39 67.1 66.4   Calm   29.94 97 -
01:44 66.9 66.2   Calm   29.94 97 -
01:49 66.7 66.0   Calm   29.94 97 -
01:54 66.4 65.8   Calm   29.94 98 -
01:59 66.6 66.0   Calm   29.94 98 -
02:04 66.6 66.0   Calm   29.94 98 -
02:09 66.6 66.0   Calm   29.94 98 -
02:14 66.6 66.0   Calm   29.94 98 -
02:19 66.6 66.0   Calm   29.94 98 -
02:24 66.6 66.0   Calm   29.94 98 -
02:29 66.0 65.5   Calm   29.94 98 -
02:34 66.0 65.5   Calm   29.93 98 -
02:39 65.8 65.3   Calm   29.94 98 -
02:44 65.7 65.1   Calm   29.93 98 -
02:49 65.5 64.9   Calm   29.94 98 -
02:54 65.7 65.3   Calm   29.94 99 -
02:59 65.7 65.1   Calm   29.94 98 -
03:04 65.7 65.1   Calm   29.94 98 -
03:09 65.5 64.9   Calm   29.94 98 -
03:14 65.3 64.8   Calm   29.94 98 -
03:19 64.9 64.4   Calm   29.94 98 -
03:24 64.8 64.4   Calm   29.94 99 -
03:29 64.8 64.4   Calm   29.94 99 -
03:34 64.8 64.4   Calm   29.94 99 -
03:39 64.6 64.2   Calm   29.94 99 -
03:44 64.6 64.2   Calm   29.94 99 -
03:49 64.6 64.2   Calm   29.94 99 -
03:54 64.8 64.4   Calm   29.94 99 -
03:59 64.6 64.2   Calm   29.94 99 -
04:04 64.8 64.4   Calm   29.94 99 -
04:09 64.6 64.2   Calm   29.94 99 -
04:14 64.6 64.2   Calm   29.94 99 -
04:19 64.6 64.2   Calm   29.94 99 -
04:24 64.6 64.2   Calm   29.94 99 -
04:29 64.2 63.9   Calm   29.94 99 -
04:34 64.0 63.7   Calm   29.94 99 -
04:39 64.0 63.7   Calm   29.94 99 -
04:44 64.0 63.7   Calm   29.95 99 -
04:49 64.0 63.7   Calm   29.94 99 -
04:54 64.0 63.7   Calm   29.94 99 -
04:59 63.7 63.3   Calm   29.94 99 -
05:04 63.5 63.1   Calm   29.94 99 -
05:09 63.5 63.1   Calm   29.95 99 -
05:14 63.5 63.1   Calm   29.94 99 -
05:19 63.3 63.0   Calm   29.95 99 -
05:24 63.3 63.0   Calm   29.95 99 -
05:29 63.1 62.8   Calm   29.95 99 -
05:34 63.3 63.0   Calm   29.95 99 -
05:39 63.3 63.0   Calm   29.95 99 -
05:44 63.3 63.0   Calm   29.95 99 -
05:49 63.5 63.1   Calm   29.94 99 -
05:54 63.7 63.3   Calm   29.94 99 -
05:59 63.5 63.1   Calm   29.95 99 -
06:04 63.5 63.1   Calm   29.95 99 -
06:09 63.3 63.0   Calm   29.95 99 -
06:14 63.3 63.0   Calm   29.95 99 -
06:19 63.1 62.8   Calm   29.96 99 -
06:24 63.0 62.6   Calm   29.96 99 -
06:29 62.6 62.2   Calm   29.95 99 -
06:34 62.4 62.1   Calm   29.96 99 -
06:39 62.4 62.1   Calm   29.96 99 -
06:44 62.4 62.1   Calm   29.96 99 -
06:49 62.4 62.1   Calm   29.97 99 -
06:54 62.4 62.1   Calm   29.97 99 -
06:59 62.6 62.2   Calm   29.97 99 -
07:04 62.6 62.2   Calm   29.97 99 -
07:09 63.1 62.8   Calm   29.97 99 -
07:14 63.1 62.8   Calm   29.97 99 -
07:19 63.1 62.8   Calm   29.97 99 -
07:24 63.3 63.0   Calm   29.97 99 -
07:29 63.0 62.6   Calm   29.97 99 -
07:34 63.3 63.0   Calm   29.97 99 -
07:39 63.5 63.1   Calm   29.97 99 -
07:44 63.9 63.5   Calm   29.98 99 -
07:49 64.2 63.9   Calm   29.98 99 -
07:54 64.6 64.2   Calm   29.98 99 -
07:59 64.8 64.4   Calm   29.98 99 -
08:04 65.1 64.8   Calm   29.98 99 -
08:09 65.7 65.1   Calm   29.99 99 -
08:14 66.0 65.5   Calm   30.00 98 -
08:19 66.2 65.5   Calm   29.99 97 -
08:24 66.6 65.7   Calm   29.99 97 -
08:29 67.3 66.2   Calm   29.99 96 -
08:34 67.8 66.2   Calm   29.99 96 -
08:39 68.2 66.4   Calm   29.99 95 -
08:44 68.9 66.9   Calm   29.99 94 -
08:49 69.3 67.1   Calm   30.00 94 -
08:54 69.8 67.5   Calm   29.99 93 -
08:59 70.7 68.0   Calm   29.99 91 -
09:04 71.1 68.4   Calm   29.99 91 -
09:09 71.4 68.4   Calm   30.00 90 -
09:14 71.8 69.1   Calm   30.00 91 -
09:19 72.3 69.6   Calm   30.00 91 -
09:24 72.5 69.6   Calm   30.00 91 -
09:29 73.0 69.8   Calm   30.00 90 -
09:34 73.6 70.2   Calm   30.00 89 -
09:39 73.9 70.9   Calm   30.00 90 -
09:44 74.3 70.5   Calm   30.00 89 -
09:49 74.8 71.2   Calm   30.00 89 -
09:54 75.2 71.2   Calm   30.00 88 -
09:59 75.6 71.4   Calm   30.00 87 -
10:04 76.1 71.2   Calm   30.00 86 -
10:09 76.6 70.9   Calm   30.00 83 -
10:14 77.2 71.2   Calm   30.00 82 -
10:19 77.4 71.6   Calm   30.00 83 -
10:24 77.9 71.6   Calm   30.00 82 -
10:29 78.3 72.0   Calm   30.00 81 -
10:34 78.6 72.3   Calm   30.00 81 -
10:39 79.0 72.3   Calm   30.00 81 -
10:44 79.3 72.0   Calm   30.00 78 -
10:49 79.7 72.1   Calm   30.00 78 -
10:54 80.1 71.8   Calm   29.99 77 -
10:59 80.2 71.8 1.0 South 1.0 30.00 76 -
11:04 80.4 72.1 1.0 South 1.0 30.00 76 -
11:09 80.6 71.8 1.0 South 2.0 30.00 75 -
11:14 81.0 72.0 2.0 South 2.0 30.00 74 -
11:19 81.5 70.9 1.0 South 2.0 30.00 71 -
11:24 81.7 71.6 1.0 South 1.0 29.99 72 -
11:29 81.9 72.0 2.0 South 3.0 30.00 72 -
11:34 82.2 72.3   Calm 1.0 29.99 72 -
11:39 82.6 72.7 1.0 South 1.0 29.99 72 -
11:44 83.1 72.5 1.0 South 2.0 29.99 71 -
11:49 83.7 72.0 1.0 South 2.0 29.99 69 -
11:54 84.0 73.2 1.0 South 1.0 29.99 70 -
11:59 84.4 73.0 1.0 South 1.0 29.99 69 -
12:04 84.6 72.3 1.0 South 1.0 29.99 67 -
12:09 84.7 72.1 1.0 South 2.0 29.99 66 -
12:14 85.3 73.0 1.0 South 1.0 30.00 67 -
12:19 85.5 72.0 1.0 South 1.0 29.99 64 -
12:24 85.3 71.6 1.0 South 1.0 29.99 64 -
12:29 85.6 71.1 1.0 South 1.0 29.99 62 -
12:34 86.2 72.7 1.0 South 1.0 29.99 64 -
12:39 86.2 73.0 1.0 South 2.0 29.99 66 -
12:44 86.4 72.7 1.0 South 2.0 29.99 65 -
12:49 86.7 72.0 1.0 South 1.0 29.99 62 -
12:54 86.7 72.1 1.0 South 1.0 30.00 62 -
12:59 86.9 70.7 2.0 South 2.0 29.99 59 -
13:04 86.9 69.8 2.0 South 2.0 29.99 57 -
13:09 87.6 70.3 1.0 South 1.0 29.99 58 -
13:14 88.0 69.8 1.0 South 2.0 29.99 55 -
13:19 87.8 70.7 1.0 South 2.0 29.98 57 -
13:24 87.8 71.2 2.0 South 2.0 29.98 58 -
13:29 88.2 70.0 1.0 South 1.0 29.99 56 -
13:34 88.5 70.0 1.0 South 2.0 29.99 55 -
13:39 89.2 70.2   Calm 1.0 29.98 54 -
13:44 89.1 69.6 1.0 South 1.0 29.98 53 -
13:49 89.1 69.1 2.0 South 2.0 29.98 52 -
13:54 88.5 68.5 1.0 South 1.0 29.97 52 -
13:59 88.7 69.4 2.0 South 2.0 29.97 53 -
14:04 89.1 68.7 2.0 South 2.0 29.97 51 -
14:09 89.1 69.3 1.0 South 1.0 29.97 53 -
14:14 88.3 69.1 1.0 South 1.0 29.97 54 -
14:19 87.8 68.5 1.0 South 1.0 29.97 53 -
14:24 88.3 68.9 1.0 South 1.0 29.97 53 -
14:29 88.7 70.0   Calm 1.0 29.97 54 -
14:34 89.2 69.4 1.0 South 2.0 29.97 53 -
14:39 89.4 68.7 2.0 South 2.0 29.97 51 -
14:44 88.9 68.9 1.0 South 1.0 29.97 52 -
14:49 88.9 68.5 1.0 South 1.0 29.97 52 -
14:54 88.5 69.6 1.0 South 1.0 29.96 54 -
14:59 88.7 68.0 1.0 South 1.0 29.96 51 -
15:04 89.2 68.7 1.0 South 1.0 29.96 51 -
15:09 88.7 68.4 1.0 South 1.0 29.96 51 -
15:14 89.6 69.6 1.0 South 1.0 29.96 52 -
15:19 90.0 68.5 2.0 South 2.0 29.96 50 -
15:24 90.1 68.0 1.0 South 2.0 29.96 49 -
15:29 89.8 66.7 1.0 South 1.0 29.96 47 -
15:34 89.2 67.5 1.0 South 1.0 29.96 49 -
15:39 89.4 65.7 1.0 South 1.0 29.95 46 -
15:44 90.0 67.1 1.0 South 1.0 29.95 47 -
15:49 89.8 68.0 1.0 South 1.0 29.95 49 -
15:54 88.5 66.6 1.0 South 1.0 29.95 49 -
15:59 87.3 63.9   Calm 1.0 29.95 46 -
16:04 88.2 65.8   Calm   29.95 48 -
16:09 88.3 69.8 1.0 South 1.0 29.95 55 -
16:14 88.7 69.4   Calm 1.0 29.95 54 -
16:19 89.2 68.7   Calm 1.0 29.95 51 -
16:24 90.1 67.3 1.0 South 1.0 29.95 47 -
16:29 90.7 67.6   Calm 1.0 29.95 47 -
16:34 90.7 67.6 1.0 South 1.0 29.94 47 -
16:39 90.5 68.0   Calm 1.0 29.95 48 -
16:44 90.1 66.6 1.0 South 1.0 29.94 46 -
16:49 90.0 66.4 1.0 South 1.0 29.94 46 -
16:54 89.2 65.8 1.0 South 1.0 29.94 46 -
16:59 88.7 63.7 1.0 South 1.0 29.94 44 -
17:04 89.2 63.9 1.0 South 1.0 29.94 44 -
17:09 90.3 66.2 1.0 South 1.0 29.94 45 -
17:14 90.3 66.2 1.0 South 1.0 29.94 45 -
17:19 89.2 65.7   Calm 1.0 29.94 48 -
17:24 87.4 68.0 1.0 South 1.0 29.94 54 -
17:29 86.9 68.2   Calm   29.94 54 -
17:34 86.9 69.4 1.0 South 1.0 29.94 56 -
17:39 86.2 70.5   Calm 1.0 29.95 61 -
17:44 85.1 70.5 1.0 South 1.0 29.94 64 -
17:49 83.8 71.4 1.0 South 1.0 29.94 67 -
17:54 83.5 71.8   Calm 1.0 29.94 68 -
17:59 83.5 72.3 1.0 South 1.0 29.94 69 -
18:04 83.1 72.1 1.0 South 1.0 29.94 70 -
18:09 82.6 72.5 1.0 South 1.0 29.94 72 -
18:14 82.4 72.5 1.0 South 2.0 29.94 72 -
18:19 81.7 71.8   Calm   29.94 72 -
18:24 81.3 71.8   Calm   29.94 73 -
18:29 81.1 71.2 1.0 South 1.0 29.94 72 -
18:34 81.3 70.9 1.0 South 1.0 29.94 71 -
18:39 81.3 71.1   Calm   29.94 71 -
18:44 81.3 71.4 1.0 South 1.0 29.94 72 -
18:49 81.3 71.4 1.0 South 1.0 29.94 72 -
18:54 81.3 71.1 1.0 South 1.0 29.94 71 -
18:59 81.1 71.8   Calm 1.0 29.94 73 -
19:04 81.0 70.9   Calm   29.95 72 -
19:09 80.8 70.9   Calm   29.95 72 -
19:14 80.6 70.7 1.0 South 1.0 29.94 72 -

Download your copy of this data-set  from WeatherUnderground

Our weather-data as stored at Weather Underground

Original Weather Page

My Ham Radio Page